Grady, Arkansas
Current Conditions -  °F | °C
As of 2:42 AM on Saturday 29 Nov 2014 (Local Time) from KPBF Reporting Station
Broken Clouds Broken Clouds  
Wind Chill: 51°   Ceiling: 1100
Heat Index: 51°   Visibility: 10mi
Dew Point: 46°   Wind: 15mph
Humidity: 83%   Direction: 200°SSW
Pressure: 30.05"   Gusts: NA
Location:  34.08°N, 91.7°W
Report Text: KPBF 290842Z AUTO 20013KT 10SM BKN011 11/08 A3005 RMK AO2 T01060078
Loading
Personal Weather Stations






























Interactive Weather Map New forecast layout! Learn more

10-Day Weather Forecast

Advertisements
Track Severe Weather on mobile